Time;durP1;ratioP1;P1;durP2;ratioP2;P2;SDS_P1;SDS_P2;PMS_P1;PMS_P2;Temp;Humidity;BMP_temperature;BMP_pressure;BME280_temperature;BME280_humidity;BME280_pressure;Samples;Min_cycle;Max_cycle;Signal;HPM_P1;HPM_P2
2023/01/03 00:01:15;;;;;;;0.65;0.47;;;11.50;78.00;;;;;;4981038;28;20034;-61
2023/01/03 00:03:41;;;;;;;0.95;0.40;;;11.50;78.50;;;;;;4985244;28;20035;-64
2023/01/03 00:06:19;;;;;;;0.35;0.35;;;11.40;78.60;;;;;;4986222;28;20026;-64
2023/01/03 00:08:45;;;;;;;0.50;0.32;;;11.40;79.00;;;;;;4985266;28;20053;-64
2023/01/03 00:11:18;;;;;;;0.47;0.40;;;11.40;78.90;;;;;;4983241;28;20109;-62
2023/01/03 00:13:44;;;;;;;0.60;0.40;;;11.40;79.00;;;;;;4985797;28;20066;-63
2023/01/03 00:16:18;;;;;;;0.88;0.47;;;11.40;78.90;;;;;;4982215;28;20665;-64
2023/01/03 00:18:44;;;;;;;0.63;0.40;;;11.30;78.90;;;;;;4955058;28;20062;-64
2023/01/03 00:21:09;;;;;;;2.15;0.43;;;11.30;78.70;;;;;;4982023;28;20121;-65
2023/01/03 00:23:35;;;;;;;2.35;0.40;;;11.30;78.90;;;;;;4977535;28;20038;-62
2023/01/03 00:26:11;;;;;;;0.38;0.30;;;11.20;79.20;;;;;;4974444;28;20237;-63
2023/01/03 00:28:37;;;;;;;1.55;0.47;;;11.20;79.40;;;;;;4970706;28;20034;-64
2023/01/03 00:31:11;;;;;;;1.95;0.55;;;11.20;79.20;;;;;;4974120;28;20038;-64
2023/01/03 00:33:37;;;;;;;0.52;0.45;;;11.20;79.70;;;;;;4971910;28;20049;-63
2023/01/03 00:36:05;;;;;;;0.55;0.40;;;11.10;79.60;;;;;;4971526;28;20049;-65
2023/01/03 00:38:31;;;;;;;0.98;0.50;;;11.10;79.70;;;;;;4973354;28;20137;-64
2023/01/03 00:41:14;;;;;;;0.30;0.30;;;11.10;79.80;;;;;;4973833;28;20464;-64
2023/01/03 00:43:41;;;;;;;2.42;2.03;;;11.10;80.20;;;;;;4971376;28;20119;-64
2023/01/03 00:46:08;;;;;;;1.45;1.10;;;11.10;79.80;;;;;;4974253;28;20113;-64
2023/01/03 00:48:34;;;;;;;1.10;0.90;;;11.00;79.60;;;;;;4976107;28;20049;-64
2023/01/03 00:51:21;;;;;;;0.80;0.65;;;11.00;79.60;;;;;;4970070;28;20034;-64
2023/01/03 00:53:48;;;;;;;1.70;0.57;;;10.90;79.80;;;;;;4980196;28;20362;-64
2023/01/03 00:56:19;;;;;;;0.82;0.40;;;10.90;79.70;;;;;;4974201;28;20073;-64
2023/01/03 00:58:46;;;;;;;1.55;0.50;;;10.90;80.00;;;;;;4972923;28;20042;-64
2023/01/03 01:01:14;;;;;;;0.30;0.30;;;10.80;80.10;;;;;;4975741;28;20052;-64
2023/01/03 01:03:42;;;;;;;0.57;0.50;;;10.80;80.30;;;;;;4981179;28;20034;-61
2023/01/03 01:06:23;;;;;;;0.50;0.50;;;10.80;80.50;;;;;;4980815;28;20466;-64
2023/01/03 01:08:50;;;;;;;0.95;0.50;;;10.90;80.90;;;;;;4980948;28;20042;-64
2023/01/03 01:11:16;;;;;;;0.73;0.63;;;10.90;80.80;;;;;;4980845;28;20069;-64
2023/01/03 01:13:43;;;;;;;0.93;0.70;;;10.90;80.60;;;;;;4977155;28;20113;-64
2023/01/03 01:16:13;;;;;;;0.40;0.40;;;10.90;80.80;;;;;;4975993;28;20068;-63
2023/01/03 01:18:42;;;;;;;0.60;0.50;;;10.80;81.00;;;;;;4977725;28;20034;-63
2023/01/03 01:21:11;;;;;;;0.60;0.60;;;10.80;81.00;;;;;;4978388;28;20034;-63
2023/01/03 01:23:38;;;;;;;1.83;0.68;;;10.90;81.10;;;;;;4969441;28;21742;-64
2023/01/03 01:26:05;;;;;;;0.80;0.80;;;10.90;81.10;;;;;;4972421;28;20046;-64
2023/01/03 01:28:31;;;;;;;0.95;0.90;;;10.90;81.10;;;;;;4977674;28;20356;-63
2023/01/03 01:30:59;;;;;;;0.82;0.80;;;10.90;81.20;;;;;;4972938;28;20470;-62
2023/01/03 01:33:25;;;;;;;1.00;0.80;;;10.90;81.20;;;;;;4977864;28;20058;-62
2023/01/03 01:35:50;;;;;;;0.80;0.70;;;10.90;81.10;;;;;;4977092;28;20438;-63
2023/01/03 01:38:16;;;;;;;0.82;0.80;;;10.90;81.10;;;;;;4977025;28;20525;-62
2023/01/03 01:40:41;;;;;;;0.60;0.60;;;10.80;81.10;;;;;;4962824;28;20702;-62
2023/01/03 01:46:31;;;;;;;1.00;0.73;;;10.90;81.50;;;;;;4972839;28;20431;-64
2023/01/03 01:49:01;;;;;;;0.50;0.50;;;10.90;81.60;;;;;;4978155;28;20493;-62
2023/01/03 01:51:31;;;;;;;1.55;0.57;;;10.90;81.20;;;;;;4979120;28;20179;-63
2023/01/03 01:53:59;;;;;;;1.15;0.68;;;10.90;81.10;;;;;;4978707;28;20089;-62
2023/01/03 01:56:29;;;;;;;1.33;0.70;;;10.90;81.10;;;;;;4979990;28;20042;-63
2023/01/03 01:58:55;;;;;;;1.55;0.80;;;10.90;81.10;;;;;;4982667;28;20117;-62
2023/01/03 02:01:22;;;;;;;1.00;0.80;;;10.90;81.00;;;;;;4980825;28;20522;-63
2023/01/03 02:04:00;;;;;;;0.70;0.70;;;10.90;81.00;;;;;;4981163;28;20371;-64
2023/01/03 02:06:27;;;;;;;0.85;0.70;;;10.90;81.30;;;;;;4979824;28;20034;-62
2023/01/03 02:08:53;;;;;;;1.02;0.70;;;10.80;81.00;;;;;;4982934;28;20034;-64
2023/01/03 02:11:43;;;;;;;0.85;0.60;;;10.80;81.10;;;;;;4974661;28;20552;-62
2023/01/03 02:14:08;;;;;;;1.20;0.68;;;10.80;81.30;;;;;;4980197;28;20114;-63
2023/01/03 02:17:04;;;;;;;1.65;0.80;;;10.60;81.00;;;;;;4978675;28;20141;-61
2023/01/03 02:19:48;;;;;;;2.40;0.70;;;10.80;81.50;;;;;;4983580;28;20402;-63
2023/01/03 02:22:57;;;;;;;0.88;0.80;;;10.80;81.20;;;;;;4983594;28;20533;-63
2023/01/03 02:25:32;;;;;;;1.83;0.70;;;10.70;81.80;;;;;;4960919;28;20043;-63
2023/01/03 02:28:07;;;;;;;;;;;10.60;81.60;;;;;;4978977;28;20038;-62
2023/01/03 02:30:53;;;;;;;2.35;0.70;;;10.70;82.00;;;;;;4979174;28;19924;-61
2023/01/03 02:33:32;;;;;;;0.77;0.77;;;10.60;81.70;;;;;;4972627;28;20089;-63
2023/01/03 02:36:00;;;;;;;0.60;0.60;;;10.60;81.50;;;;;;4981859;28;20122;-64
2023/01/03 02:39:23;;;;;;;2.15;0.90;;;10.60;81.50;;;;;;4982668;28;20035;-64
2023/01/03 02:44:57;;;;;;;1.10;1.00;;;10.60;81.80;;;;;;4980004;28;20045;-64
2023/01/03 02:47:27;;;;;;;0.73;0.73;;;10.60;81.90;;;;;;4974858;28;20292;-63
2023/01/03 02:49:56;;;;;;;0.88;0.80;;;10.70;81.90;;;;;;4978793;28;20113;-61
2023/01/03 02:52:27;;;;;;;1.00;0.90;;;10.60;81.80;;;;;;4977989;28;20314;-63
2023/01/03 02:54:58;;;;;;;1.50;0.85;;;10.60;82.00;;;;;;4977267;28;20054;-63
2023/01/03 02:57:34;;;;;;;0.80;0.80;;;10.60;82.00;;;;;;4976259;28;20039;-62
2023/01/03 03:00:07;;;;;;;0.68;0.68;;;10.60;82.30;;;;;;4983645;28;20045;-61
2023/01/03 03:02:35;;;;;;;1.33;0.90;;;10.60;82.30;;;;;;4983033;28;20038;-63
2023/01/03 03:05:05;;;;;;;1.15;0.73;;;10.60;82.20;;;;;;4985492;28;20057;-63
2023/01/03 03:07:38;;;;;;;1.10;0.70;;;10.60;82.20;;;;;;4985419;28;20034;-64
2023/01/03 03:13:12;;;;;;;0.95;0.85;;;10.60;82.10;;;;;;4982078;28;20146;-64
2023/01/03 03:16:00;;;;;;;1.98;0.80;;;10.60;82.00;;;;;;4977854;28;20062;-63
2023/01/03 03:18:56;;;;;;;1.13;0.98;;;10.60;82.40;;;;;;4974313;28;20034;-64
2023/01/03 03:26:59;;;;;;;5.97;1.55;;;10.60;82.20;;;;;;4974906;28;20042;-63
2023/01/03 03:29:27;;;;;;;1.30;1.20;;;10.50;82.00;;;;;;4975980;28;20126;-63
2023/01/03 03:31:54;;;;;;;2.85;1.48;;;10.50;82.10;;;;;;4978521;28;20470;-61
2023/01/03 03:34:34;;;;;;;2.35;1.08;;;10.50;82.00;;;;;;4974003;28;20042;-62
2023/01/03 03:37:04;;;;;;;2.45;1.30;;;10.50;82.40;;;;;;4975843;28;20323;-64
2023/01/03 03:45:28;;;;;;;1.92;1.00;;;10.50;81.90;;;;;;4979084;28;20050;-63
2023/01/03 03:48:16;;;;;;;;;;;10.50;81.90;;;;;;4978582;28;20035;-63
2023/01/03 03:50:46;;;;;;;0.80;0.80;;;10.50;82.20;;;;;;4970643;28;19921;-63
2023/01/03 03:53:13;;;;;;;1.00;0.90;;;10.50;81.50;;;;;;4981260;28;20052;-64
2023/01/03 03:55:51;;;;;;;0.80;0.70;;;10.40;81.70;;;;;;4974881;28;20121;-63
2023/01/03 03:58:22;;;;;;;0.80;0.70;;;10.40;82.30;;;;;;4977599;28;20035;-63
2023/01/03 04:00:51;;;;;;;0.75;0.75;;;10.40;82.20;;;;;;4976825;28;20041;-62
2023/01/03 04:03:19;;;;;;;0.70;0.70;;;10.30;82.30;;;;;;4981712;28;20045;-63
2023/01/03 04:06:01;;;;;;;1.52;0.93;;;10.30;82.40;;;;;;4982145;28;20427;-63
2023/01/03 04:08:27;;;;;;;3.05;1.17;;;10.30;82.80;;;;;;4977809;28;20047;-62
2023/01/03 04:11:04;;;;;;;1.25;1.02;;;10.30;82.50;;;;;;4975861;28;20895;-64
2023/01/03 04:13:31;;;;;;;1.00;0.90;;;10.30;82.60;;;;;;4978639;28;20030;-62
2023/01/03 04:15:56;;;;;;;2.67;1.25;;;10.30;82.70;;;;;;4977602;28;20767;-61
2023/01/03 04:18:22;;;;;;;2.03;1.38;;;10.30;82.70;;;;;;4977863;28;20065;-62
2023/01/03 04:20:47;;;;;;;2.45;0.80;;;10.30;82.70;;;;;;4979496;28;20387;-61
2023/01/03 04:23:13;;;;;;;1.45;1.00;;;10.30;82.70;;;;;;4971421;28;20026;-63
2023/01/03 04:25:38;;;;;;;2.25;1.10;;;10.40;82.70;;;;;;4975805;28;20038;-62
2023/01/03 04:28:04;;;;;;;1.35;1.25;;;10.40;82.90;;;;;;4977225;28;20033;-63
2023/01/03 04:30:30;;;;;;;1.95;1.00;;;10.30;82.80;;;;;;4974032;28;20124;-63
2023/01/03 04:32:56;;;;;;;1.10;1.00;;;10.40;82.90;;;;;;4972700;28;20039;-64
2023/01/03 04:35:21;;;;;;;1.02;0.93;;;10.40;83.70;;;;;;4973328;28;20034;-63
2023/01/03 04:37:47;;;;;;;1.20;1.10;;;10.40;82.80;;;;;;4972049;28;20122;-64
2023/01/03 04:40:13;;;;;;;1.20;1.10;;;10.40;82.80;;;;;;4977151;28;20498;-64
2023/01/03 04:45:23;;;;;;;1.67;1.10;;;10.40;82.70;;;;;;4973095;28;20442;-65
2023/01/03 04:47:48;;;;;;;1.90;1.05;;;10.40;82.70;;;;;;4973132;28;20026;-64
2023/01/03 04:50:14;;;;;;;1.45;1.10;;;10.30;82.70;;;;;;4973669;28;20097;-63
2023/01/03 04:52:39;;;;;;;4.00;1.30;;;10.30;82.70;;;;;;4973118;28;20038;-64
2023/01/03 04:55:05;;;;;;;1.85;1.00;;;10.30;82.90;;;;;;4975599;28;20039;-63
2023/01/03 04:57:31;;;;;;;1.60;1.00;;;10.30;83.00;;;;;;4976346;28;20569;-64
2023/01/03 04:59:56;;;;;;;2.13;1.20;;;10.20;83.00;;;;;;4975815;28;20039;-64
2023/01/03 05:02:22;;;;;;;1.15;1.05;;;10.20;83.20;;;;;;4976516;28;20039;-65
2023/01/03 05:04:47;;;;;;;1.55;1.20;;;10.20;83.20;;;;;;4979056;28;20493;-64
2023/01/03 05:07:13;;;;;;;1.33;1.02;;;10.20;83.20;;;;;;4974079;28;20038;-64
2023/01/03 05:09:38;;;;;;;1.58;1.13;;;10.20;83.20;;;;;;4980532;28;20326;-63
2023/01/03 05:12:04;;;;;;;1.17;1.00;;;10.20;83.30;;;;;;4973534;28;20038;-63
2023/01/03 05:14:30;;;;;;;1.25;1.10;;;10.20;83.30;;;;;;4977485;28;20030;-64
2023/01/03 05:16:55;;;;;;;0.80;0.80;;;10.20;83.30;;;;;;4973811;28;20042;-63
2023/01/03 05:19:21;;;;;;;2.13;1.25;;;10.20;83.30;;;;;;4974856;28;20111;-63
2023/01/03 05:27:15;;;;;;;1.88;1.60;;;10.20;83.30;;;;;;4975533;28;20053;-64
2023/01/03 05:29:42;;;;;;;2.35;1.73;;;10.20;83.40;;;;;;4974927;28;20038;-64
2023/01/03 05:32:07;;;;;;;3.22;2.38;;;10.20;83.40;;;;;;4978087;28;20099;-62
2023/01/03 05:34:33;;;;;;;3.65;2.50;;;10.10;83.60;;;;;;4978279;28;20046;-63
2023/01/03 05:36:58;;;;;;;2.60;2.38;;;10.10;83.70;;;;;;4981375;28;20038;-63
2023/01/03 05:39:24;;;;;;;2.60;2.15;;;10.10;83.90;;;;;;4978702;28;20049;-62
2023/01/03 05:41:58;;;;;;;2.20;2.00;;;10.00;84.00;;;;;;4977279;28;20450;-62
2023/01/03 05:44:25;;;;;;;1.98;1.77;;;10.10;84.10;;;;;;4983295;28;20350;-64
2023/01/03 05:46:51;;;;;;;1.85;1.65;;;10.00;84.00;;;;;;4979021;28;20046;-61
2023/01/03 05:49:17;;;;;;;1.52;1.40;;;10.10;84.10;;;;;;4981175;28;20046;-63
2023/01/03 05:51:42;;;;;;;1.85;1.52;;;10.10;84.10;;;;;;4982520;28;20037;-62
2023/01/03 05:54:14;;;;;;;1.92;1.70;;;10.10;84.00;;;;;;4980831;28;20034;-62
2023/01/03 05:56:40;;;;;;;2.50;1.85;;;10.10;84.10;;;;;;4981516;28;20038;-62
2023/01/03 05:59:06;;;;;;;3.05;2.05;;;10.10;84.10;;;;;;4972248;28;20030;-63
2023/01/03 06:01:32;;;;;;;2.80;2.30;;;10.10;84.10;;;;;;4980827;28;20037;-62
2023/01/03 06:03:58;;;;;;;2.10;1.90;;;10.10;84.30;;;;;;4982062;28;20049;-63
2023/01/03 06:06:24;;;;;;;2.78;2.40;;;10.00;84.20;;;;;;4978381;28;20034;-61
2023/01/03 06:08:49;;;;;;;3.97;2.35;;;10.00;84.30;;;;;;4976551;28;20097;-62
2023/01/03 06:11:16;;;;;;;4.40;2.75;;;10.00;84.40;;;;;;4976502;28;20043;-62
2023/01/03 06:13:42;;;;;;;3.80;2.60;;;10.00;84.40;;;;;;4974961;28;20043;-63
2023/01/03 06:18:59;;;;;;;5.00;3.03;;;10.00;84.40;;;;;;4983010;28;20037;-64
2023/01/03 06:21:25;;;;;;;3.83;2.72;;;10.00;84.30;;;;;;4979259;28;20031;-63
2023/01/03 06:23:50;;;;;;;3.78;2.50;;;10.00;84.30;;;;;;4974750;28;20058;-63
2023/01/03 06:26:21;;;;;;;3.88;2.83;;;10.10;84.30;;;;;;4979922;28;20097;-64
2023/01/03 06:28:47;;;;;;;4.30;3.63;;;10.10;84.40;;;;;;4976621;28;20038;-63
2023/01/03 06:31:13;;;;;;;5.38;4.85;;;10.00;84.10;;;;;;4974008;28;20046;-64
2023/01/03 06:33:39;;;;;;;9.27;8.27;;;10.10;84.20;;;;;;4978414;28;20455;-65
2023/01/03 06:36:08;;;;;;;10.85;8.52;;;10.10;84.10;;;;;;4971196;28;20490;-64
2023/01/03 06:38:34;;;;;;;12.95;10.25;;;10.10;84.20;;;;;;4974520;28;20034;-64
2023/01/03 06:41:00;;;;;;;12.65;8.77;;;10.10;84.20;;;;;;4981616;28;20035;-64
2023/01/03 06:43:26;;;;;;;9.60;7.78;;;10.10;84.10;;;;;;4982365;28;20030;-64
2023/01/03 06:54:18;;;;;;;4.75;3.90;;;10.10;84.30;;;;;;4983056;28;20085;-63
2023/01/03 06:56:44;;;;;;;4.40;4.00;;;10.10;84.30;;;;;;4982873;28;20074;-61
2023/01/03 06:59:09;;;;;;;4.20;3.80;;;10.10;84.10;;;;;;4982566;28;20077;-61
2023/01/03 07:01:35;;;;;;;3.40;3.20;;;10.10;85.00;;;;;;4986942;28;20121;-63
2023/01/03 07:04:01;;;;;;;4.20;3.50;;;10.00;84.10;;;;;;4983747;28;20034;-63
2023/01/03 07:06:27;;;;;;;3.35;3.05;;;10.10;84.10;;;;;;4984037;28;20077;-61
2023/01/03 07:08:54;;;;;;;3.20;2.83;;;10.00;84.10;;;;;;4983238;28;20046;-63
2023/01/03 07:11:22;;;;;;;4.10;3.70;;;10.10;84.10;;;;;;4979411;28;20515;-64
2023/01/03 07:13:58;;;;;;;3.30;3.00;;;10.10;84.10;;;;;;4986718;28;20041;-64
2023/01/03 07:16:32;;;;;;;3.38;3.08;;;10.10;84.10;;;;;;4986846;28;20058;-64
2023/01/03 07:18:59;;;;;;;3.88;3.47;;;10.00;84.10;;;;;;4982625;28;20101;-63
2023/01/03 07:21:27;;;;;;;3.92;3.53;;;10.00;84.00;;;;;;4983503;28;20035;-63
2023/01/03 07:23:57;;;;;;;6.90;5.43;;;10.00;84.10;;;;;;4985941;28;20023;-61
2023/01/03 07:26:24;;;;;;;9.07;4.85;;;10.00;84.10;;;;;;4983155;28;20422;-61
2023/01/03 07:28:50;;;;;;;5.60;5.00;;;10.00;84.10;;;;;;4986394;28;20038;-64
2023/01/03 07:31:16;;;;;;;8.27;5.20;;;10.00;84.20;;;;;;4986826;28;20046;-64
2023/01/03 07:33:43;;;;;;;4.95;3.38;;;10.00;84.30;;;;;;4985021;28;20502;-63
2023/01/03 07:36:11;;;;;;;5.38;3.72;;;10.00;84.40;;;;;;4966761;28;20070;-62
2023/01/03 07:38:38;;;;;;;17.65;7.07;;;9.90;84.40;;;;;;4976587;28;20061;-63
2023/01/03 07:41:07;;;;;;;13.25;6.50;;;9.90;84.50;;;;;;4961222;28;20040;-63
2023/01/03 07:43:36;;;;;;;10.13;5.18;;;9.90;84.60;;;;;;4958750;28;20047;-63
2023/01/03 07:46:16;;;;;;;8.50;4.55;;;9.90;84.60;;;;;;4962008;28;20038;-62
2023/01/03 07:48:42;;;;;;;7.53;4.18;;;9.90;84.90;;;;;;4951300;28;20168;-61
2023/01/03 07:51:10;;;;;;;4.35;3.58;;;9.90;84.60;;;;;;4953087;28;20698;-63
2023/01/03 07:53:37;;;;;;;5.82;4.20;;;9.90;84.70;;;;;;4955486;28;20417;-61
2023/01/03 07:56:05;;;;;;;6.15;4.32;;;9.90;84.70;;;;;;4955997;28;21056;-62
2023/01/03 07:58:31;;;;;;;6.38;3.55;;;9.80;84.80;;;;;;4957513;28;20038;-64
2023/01/03 08:01:12;;;;;;;3.72;3.33;;;9.80;84.70;;;;;;4977073;28;20808;-63
2023/01/03 08:03:38;;;;;;;4.00;3.08;;;9.80;84.80;;;;;;4982008;28;20112;-63
2023/01/03 08:06:15;;;;;;;3.80;3.15;;;9.80;84.80;;;;;;4978138;28;20140;-64
2023/01/03 08:08:41;;;;;;;3.70;3.13;;;9.80;84.80;;;;;;4982384;28;20092;-63
2023/01/03 08:13:54;;;;;;;5.32;3.38;;;9.80;85.00;;;;;;4983306;28;20049;-64
2023/01/03 08:16:20;;;;;;;5.28;3.30;;;9.80;85.00;;;;;;4962706;28;20043;-63
2023/01/03 08:18:46;;;;;;;6.55;3.72;;;9.80;85.00;;;;;;4954564;28;20034;-64
2023/01/03 08:21:13;;;;;;;4.50;3.63;;;9.80;85.00;;;;;;4954672;28;20042;-64
2023/01/03 08:23:40;;;;;;;5.45;3.75;;;9.90;85.00;;;;;;4960445;28;20123;-63
2023/01/03 08:26:07;;;;;;;4.65;3.70;;;9.90;85.00;;;;;;4957395;28;20038;-63
2023/01/03 08:28:34;;;;;;;7.05;4.47;;;9.90;85.20;;;;;;4949889;28;20042;-64
2023/01/03 08:31:05;;;;;;;14.77;8.23;;;9.90;85.10;;;;;;4958830;28;20050;-63
2023/01/03 08:33:37;;;;;;;17.40;10.23;;;9.90;85.10;;;;;;4959809;28;20509;-65
2023/01/03 08:36:05;;;;;;;18.58;10.57;;;10.00;85.20;;;;;;4954444;28;20042;-65
2023/01/03 08:38:41;;;;;;;14.85;9.32;;;9.90;85.10;;;;;;4955218;28;20554;-64
2023/01/03 08:41:10;;;;;;;16.65;10.07;;;10.00;85.20;;;;;;4951777;28;20042;-64
2023/01/03 08:43:39;;;;;;;14.77;10.07;;;9.90;85.00;;;;;;4958139;28;20512;-63
2023/01/03 08:46:08;;;;;;;15.35;9.55;;;10.00;85.20;;;;;;4961963;28;20117;-65
2023/01/03 08:48:33;;;;;;;15.23;9.43;;;10.00;85.10;;;;;;4974442;28;20387;-64
2023/01/03 08:51:00;;;;;;;15.60;8.82;;;10.00;85.10;;;;;;4982309;28;20055;-62
2023/01/03 08:53:27;;;;;;;19.35;9.65;;;10.00;85.10;;;;;;4981580;28;20038;-63
2023/01/03 08:55:53;;;;;;;20.35;10.43;;;10.10;85.20;;;;;;4978431;28;20039;-61
2023/01/03 08:58:19;;;;;;;28.65;15.65;;;10.10;85.20;;;;;;4980640;28;20429;-62
2023/01/03 09:00:44;;;;;;;27.35;14.45;;;10.10;85.30;;;;;;4975364;28;20049;-63
2023/01/03 09:03:10;;;;;;;23.20;12.88;;;10.10;85.30;;;;;;4973640;28;20116;-62
2023/01/03 09:05:35;;;;;;;17.70;10.93;;;10.10;85.40;;;;;;4980289;28;20042;-62
2023/01/03 09:08:01;;;;;;;11.18;6.43;;;10.10;85.50;;;;;;4984575;28;20326;-60
2023/01/03 09:10:26;;;;;;;5.55;3.78;;;10.10;85.60;;;;;;4972553;28;20526;-62
2023/01/03 09:12:52;;;;;;;5.88;3.92;;;10.10;85.60;;;;;;4976295;28;20725;-61
2023/01/03 09:15:18;;;;;;;7.50;3.63;;;10.20;85.70;;;;;;4978411;28;20039;-62
2023/01/03 09:17:46;;;;;;;7.55;3.58;;;10.20;85.80;;;;;;4972585;28;20046;-60
2023/01/03 09:20:12;;;;;;;4.38;3.88;;;10.20;85.90;;;;;;4979072;28;20046;-60
2023/01/03 09:22:38;;;;;;;7.88;3.72;;;10.30;85.90;;;;;;4981751;28;20038;-61
2023/01/03 09:25:04;;;;;;;6.47;3.22;;;10.20;85.80;;;;;;4979247;28;20039;-62
2023/01/03 09:27:30;;;;;;;5.60;3.45;;;10.30;85.90;;;;;;4975921;28;20041;-61
2023/01/03 09:29:56;;;;;;;4.43;3.05;;;10.30;85.70;;;;;;4980845;28;20035;-61
2023/01/03 09:32:21;;;;;;;4.60;3.03;;;10.30;85.60;;;;;;4966329;28;20042;-61
2023/01/03 09:34:47;;;;;;;3.03;2.67;;;10.40;85.50;;;;;;4977036;28;20038;-60
2023/01/03 09:37:12;;;;;;;3.60;2.30;;;10.40;85.30;;;;;;4979245;28;20050;-62
2023/01/03 09:39:39;;;;;;;3.83;2.67;;;10.40;85.20;;;;;;4977805;28;20077;-59
2023/01/03 09:44:52;;;;;;;4.35;2.30;;;10.50;85.10;;;;;;4977825;28;20519;-62
2023/01/03 09:47:22;;;;;;;2.75;2.40;;;10.60;85.00;;;;;;4977597;28;20041;-62
2023/01/03 09:49:49;;;;;;;2.30;2.00;;;10.50;84.90;;;;;;4980308;28;20045;-63
2023/01/03 10:04:45;;;;;;;3.83;2.78;;;10.70;84.60;;;;;;4955607;28;20033;-63
2023/01/03 10:07:47;;;;;;;2.25;1.98;;;10.70;84.40;;;;;;4983559;28;20038;-61
2023/01/03 10:10:56;;;;;;;1.52;1.20;;;10.70;84.10;;;;;;4980852;28;20348;-63
2023/01/03 10:13:40;;;;;;;2.33;1.30;;;10.80;83.60;;;;;;4950611;28;20034;-61
2023/01/03 10:16:30;;;;;;;3.03;1.98;;;10.80;83.50;;;;;;4980751;28;20403;-63
2023/01/03 10:18:58;;;;;;;2.25;1.88;;;10.80;83.40;;;;;;4979483;28;20042;-63
2023/01/03 10:21:45;;;;;;;4.75;2.20;;;10.90;83.40;;;;;;4980596;28;20030;-63
2023/01/03 10:24:29;;;;;;;2.30;1.85;;;10.80;83.40;;;;;;4985425;28;20521;-60
2023/01/03 10:27:05;;;;;;;2.42;1.50;;;10.80;82.60;;;;;;4986574;28;20038;-62
2023/01/03 10:29:31;;;;;;;2.75;1.90;;;10.80;82.00;;;;;;4986483;28;20142;-60
2023/01/03 10:32:17;;;;;;;2.47;1.90;;;10.80;82.20;;;;;;4985893;28;20121;-63
2023/01/03 10:34:42;;;;;;;3.20;2.50;;;10.80;82.40;;;;;;4985959;28;20038;-61
2023/01/03 10:37:18;;;;;;;2.08;1.65;;;10.80;82.70;;;;;;4981668;28;20034;-63
2023/01/03 10:39:44;;;;;;;2.78;2.20;;;10.70;82.20;;;;;;4978730;28;20502;-63
2023/01/03 10:42:17;;;;;;;2.80;2.53;;;10.70;82.40;;;;;;4985084;28;20104;-63
2023/01/03 10:44:59;;;;;;;3.17;2.47;;;10.70;82.70;;;;;;4981525;28;20062;-64
2023/01/03 10:47:26;;;;;;;4.95;3.00;;;10.70;82.90;;;;;;4982734;28;20062;-62
2023/01/03 10:49:59;;;;;;;4.90;3.30;;;10.70;82.90;;;;;;4980770;28;20030;-63
2023/01/03 10:52:36;;;;;;;5.75;2.95;;;10.80;83.10;;;;;;4986311;28;20034;-63
2023/01/03 10:55:12;;;;;;;5.15;2.20;;;10.70;83.10;;;;;;4983630;28;20038;-66
2023/01/03 10:57:59;;;;;;;2.63;2.15;;;10.80;83.10;;;;;;4983959;28;20048;-63
2023/01/03 11:00:37;;;;;;;3.03;2.30;;;10.80;83.20;;;;;;4978356;28;20049;-62
2023/01/03 11:03:08;;;;;;;2.10;1.90;;;10.80;82.40;;;;;;4975682;28;20035;-63
2023/01/03 11:05:35;;;;;;;2.67;2.05;;;10.80;82.40;;;;;;4982492;28;20518;-63
2023/01/03 11:08:04;;;;;;;2.10;1.90;;;10.80;82.50;;;;;;4986050;28;20038;-62
2023/01/03 11:10:37;;;;;;;2.05;1.90;;;10.80;82.30;;;;;;4981077;28;20404;-63
2023/01/03 11:13:23;;;;;;;2.25;2.05;;;10.80;82.20;;;;;;4983691;28;20100;-60
2023/01/03 11:15:54;;;;;;;3.00;2.00;;;10.80;82.40;;;;;;4985694;28;20045;-63
2023/01/03 11:18:19;;;;;;;2.03;1.83;;;10.80;82.40;;;;;;4984517;28;20031;-63
2023/01/03 11:20:59;;;;;;;2.40;2.10;;;10.80;82.40;;;;;;4984099;28;20045;-62
2023/01/03 11:23:28;;;;;;;2.05;1.83;;;10.80;82.70;;;;;;4985929;28;20035;-63
2023/01/03 11:26:11;;;;;;;2.33;2.13;;;10.80;82.80;;;;;;4984970;28;20035;-62
2023/01/03 11:28:55;;;;;;;2.67;2.10;;;10.90;82.70;;;;;;4983405;28;20030;-61
2023/01/03 11:31:40;;;;;;;2.17;1.98;;;10.90;82.80;;;;;;4983957;28;20074;-61
2023/01/03 11:34:06;;;;;;;1.88;1.73;;;11.00;83.70;;;;;;4984189;28;20039;-60
2023/01/03 11:36:34;;;;;;;2.65;2.10;;;11.00;82.70;;;;;;4985352;28;20026;-61
2023/01/03 11:39:35;;;;;;;1.90;1.80;;;11.10;82.50;;;;;;4985395;28;20118;-63
2023/01/03 11:42:31;;;;;;;4.40;3.70;;;11.10;82.20;;;;;;4963708;28;20030;-62
2023/01/03 11:45:21;;;;;;;2.50;2.30;;;11.20;81.70;;;;;;4985263;28;20031;-62
2023/01/03 11:48:05;;;;;;;2.25;2.15;;;11.20;81.70;;;;;;4981139;28;20034;-61
2023/01/03 11:50:36;;;;;;;1.90;1.80;;;11.30;81.70;;;;;;4983480;28;20035;-60
2023/01/03 11:53:07;;;;;;;2.33;2.13;;;11.30;81.70;;;;;;4981255;28;20518;-61
2023/01/03 11:55:35;;;;;;;3.35;2.30;;;11.30;81.40;;;;;;4983980;28;20030;-62
2023/01/03 11:58:09;;;;;;;4.15;2.10;;;11.40;81.50;;;;;;4984741;28;20034;-61
2023/01/03 12:00:46;;;;;;;2.20;2.00;;;11.40;81.50;;;;;;4980639;28;20272;-60
2023/01/03 12:03:22;;;;;;;2.78;1.83;;;11.40;81.30;;;;;;4983751;28;20544;-59
2023/01/03 12:06:07;;;;;;;2.13;1.92;;;11.40;80.70;;;;;;4977629;28;20621;-60
2023/01/03 12:09:05;;;;;;;2.47;2.10;;;11.40;80.70;;;;;;4982465;28;20030;-61
2023/01/03 12:11:46;;;;;;;2.22;1.63;;;11.50;80.30;;;;;;4977170;28;20031;-62
2023/01/03 12:14:26;;;;;;;3.10;1.92;;;11.50;79.60;;;;;;4981774;28;20038;-59
2023/01/03 12:16:57;;;;;;;2.38;1.95;;;11.50;79.80;;;;;;4984392;28;20403;-60
2023/01/03 12:19:34;;;;;;;2.33;1.70;;;11.50;80.60;;;;;;4984850;28;20066;-61
2023/01/03 12:22:29;;;;;;;2.10;1.90;;;11.60;79.80;;;;;;4981914;28;20046;-62
2023/01/03 12:24:57;;;;;;;2.00;1.70;;;11.60;79.40;;;;;;4983625;28;20034;-62
2023/01/03 12:27:31;;;;;;;2.63;1.88;;;11.50;79.00;;;;;;4982223;28;20042;-62
2023/01/03 12:30:06;;;;;;;1.70;1.60;;;11.50;78.90;;;;;;4981067;28;20093;-63
2023/01/03 12:32:50;;;;;;;1.50;1.40;;;11.40;78.80;;;;;;4981678;28;20034;-64
2023/01/03 12:35:20;;;;;;;1.70;1.60;;;11.40;78.80;;;;;;4982348;28;20134;-63
2023/01/03 12:37:49;;;;;;;2.13;1.92;;;11.30;78.70;;;;;;4982908;28;20051;-63
2023/01/03 12:40:20;;;;;;;2.33;1.55;;;11.30;79.00;;;;;;4979628;28;20395;-65
2023/01/03 12:42:55;;;;;;;1.85;1.75;;;11.30;79.10;;;;;;4978631;28;20046;-64
2023/01/03 12:45:52;;;;;;;2.22;2.03;;;11.20;79.10;;;;;;4982800;28;20030;-63
2023/01/03 12:48:23;;;;;;;1.90;1.80;;;11.20;79.00;;;;;;4977607;28;20093;-62
2023/01/03 12:50:50;;;;;;;2.03;1.83;;;11.20;79.60;;;;;;4982675;28;20100;-62
2023/01/03 12:53:47;;;;;;;1.83;1.33;;;11.20;79.40;;;;;;4982249;28;20046;-63
2023/01/03 12:56:22;;;;;;;1.67;1.45;;;11.30;78.50;;;;;;4898349;28;20989;-63
2023/01/03 12:59:04;;;;;;;2.53;1.50;;;11.30;79.10;;;;;;4977328;28;20037;-63
2023/01/03 13:01:42;;;;;;;2.05;1.85;;;11.30;79.00;;;;;;4981149;28;20387;-62
2023/01/03 13:04:23;;;;;;;1.98;1.38;;;11.30;78.30;;;;;;4980850;28;20050;-61
2023/01/03 13:07:00;;;;;;;1.88;1.70;;;11.30;78.20;;;;;;4983795;28;20031;-60
2023/01/03 13:09:35;;;;;;;2.90;2.40;;;11.30;78.40;;;;;;4982262;28;20422;-62
2023/01/03 13:12:11;;;;;;;;;;;11.20;78.20;;;;;;4978665;28;20030;-62
2023/01/03 13:14:51;;;;;;;1.85;0.80;;;11.20;78.10;;;;;;4983244;28;20365;-62
2023/01/03 13:17:19;;;;;;;0.90;0.65;;;11.20;77.90;;;;;;4982070;28;20038;-60
2023/01/03 13:19:56;;;;;;;2.03;0.90;;;11.10;78.00;;;;;;4980968;28;20043;-62
2023/01/03 13:22:43;;;;;;;0.70;0.70;;;11.10;78.40;;;;;;4980581;28;20130;-63
2023/01/03 13:25:27;;;;;;;1.00;0.90;;;11.10;77.50;;;;;;4979169;28;20038;-59
2023/01/03 13:27:56;;;;;;;2.35;1.20;;;11.10;78.00;;;;;;4984080;28;20031;-62
2023/01/03 13:30:24;;;;;;;2.58;1.10;;;11.10;78.20;;;;;;4976892;28;20124;-62
2023/01/03 13:33:21;;;;;;;1.20;1.10;;;11.10;78.20;;;;;;4982576;28;20064;-63
2023/01/03 13:35:47;;;;;;;1.00;0.90;;;11.10;78.00;;;;;;4976587;28;20031;-61
2023/01/03 13:38:16;;;;;;;2.30;1.42;;;11.10;78.30;;;;;;4977921;28;20065;-63
2023/01/03 13:40:45;;;;;;;1.48;1.38;;;11.10;78.10;;;;;;4978092;28;20039;-59
2023/01/03 13:43:14;;;;;;;1.27;1.17;;;11.10;77.70;;;;;;4979387;28;20027;-62
2023/01/03 13:45:47;;;;;;;1.40;1.30;;;11.10;77.80;;;;;;4983871;28;20035;-60
2023/01/03 13:48:35;;;;;;;1.58;1.48;;;11.10;77.90;;;;;;4973587;28;20422;-62
2023/01/03 13:51:23;;;;;;;1.58;1.48;;;11.10;78.20;;;;;;4976217;28;20050;-63
2023/01/03 13:53:53;;;;;;;2.17;1.67;;;11.10;78.00;;;;;;4983234;28;20042;-61
2023/01/03 13:56:24;;;;;;;2.00;1.55;;;11.10;77.70;;;;;;4981380;28;20042;-61
2023/01/03 13:58:52;;;;;;;1.77;1.67;;;11.10;77.70;;;;;;4979107;28;20116;-61
2023/01/03 14:01:45;;;;;;;1.75;1.65;;;11.10;77.90;;;;;;4984499;28;20101;-63
2023/01/03 14:04:29;;;;;;;1.92;1.70;;;11.10;78.00;;;;;;4979505;28;20034;-63
2023/01/03 14:07:19;;;;;;;1.70;1.60;;;11.10;77.90;;;;;;4981260;28;20187;-61
2023/01/03 14:10:00;;;;;;;2.90;1.90;;;11.10;77.90;;;;;;4982016;28;20034;-62